Time;durP1;ratioP1;P1;durP2;ratioP2;P2;SDS_P1;SDS_P2;PMS_P1;PMS_P2;Temp;Humidity;BMP_temperature;BMP_pressure;BME280_temperature;BME280_humidity;BME280_pressure;Samples;Min_cycle;Max_cycle;Signal;HPM_P1;HPM_P2
2022/10/29 00:00:24;;;;;;;16.40;8.95;;;;;;;17.31;70.83;100955.09;10209777;29;20138;-63
2022/10/29 00:05:26;;;;;;;16.70;7.22;;;;;;;17.17;71.18;100954.22;10204673;28;20135;-63
2022/10/29 00:10:28;;;;;;;13.02;6.97;;;;;;;16.92;71.86;100951.19;10203145;28;20907;-63
2022/10/29 00:15:30;;;;;;;14.13;5.88;;;;;;;16.80;72.10;100945.47;10212981;28;20098;-63
2022/10/29 00:20:31;;;;;;;17.25;6.00;;;;;;;16.80;71.54;100957.16;10188950;29;20051;-63
2022/10/29 00:25:32;;;;;;;13.82;7.05;;;;;;;16.70;72.03;100954.00;10203451;28;20142;-63
2022/10/29 00:30:34;;;;;;;13.73;5.57;;;;;;;16.66;71.86;100967.13;10214446;28;20471;-63
2022/10/29 00:35:35;;;;;;;15.18;5.88;;;;;;;16.64;71.86;100952.09;10210947;28;20050;-63
2022/10/29 00:40:37;;;;;;;16.98;7.60;;;;;;;16.61;71.82;100957.94;10200506;29;20056;-62
2022/10/29 00:45:50;;;;;;;14.55;5.93;;;;;;;16.54;71.82;100949.75;10203369;29;20508;-63
2022/10/29 00:50:52;;;;;;;18.70;7.57;;;;;;;16.45;71.60;100957.22;10214528;29;20123;-63
2022/10/29 00:55:54;;;;;;;13.48;5.78;;;;;;;16.39;71.86;100960.75;10209422;28;20127;-64
2022/10/29 01:00:55;;;;;;;16.92;6.15;;;;;;;16.35;71.67;100962.19;10209090;28;20130;-65
2022/10/29 01:05:58;;;;;;;24.60;7.00;;;;;;;16.29;71.62;100962.97;10217252;29;20568;-63
2022/10/29 01:11:15;;;;;;;16.63;5.82;;;;;;;16.12;71.75;100973.28;10204167;28;20138;-63
2022/10/29 01:16:26;;;;;;;18.53;5.77;;;;;;;16.05;71.96;100972.38;10209619;28;20130;-63
2022/10/29 01:21:33;;;;;;;14.52;6.93;;;;;;;16.02;71.96;100956.50;10213163;28;20516;-63
2022/10/29 01:27:03;;;;;;;17.25;5.63;;;;;;;15.96;72.18;100943.75;10221199;29;20163;-63
2022/10/29 01:32:22;;;;;;;10.30;4.97;;;;;;;15.89;72.23;100948.28;10211084;28;20047;-63
2022/10/29 01:37:42;;;;;;;15.30;6.00;;;;;;;15.84;72.17;100935.31;10204757;29;20063;-63
2022/10/29 01:42:52;;;;;;;15.68;6.35;;;;;;;15.80;72.15;100939.44;10214153;29;20477;-62
2022/10/29 01:47:59;;;;;;;23.45;6.15;;;;;;;15.76;72.30;100940.88;10210369;29;20071;-63
2022/10/29 01:53:03;;;;;;;16.88;6.22;;;;;;;15.72;72.28;100947.66;10211683;28;20070;-63
2022/10/29 01:58:06;;;;;;;10.65;4.97;;;;;;;15.70;72.25;100937.03;10213836;29;20131;-63
2022/10/29 02:03:34;;;;;;;12.88;4.75;;;;;;;15.64;72.34;100935.94;10209711;28;20046;-62
2022/10/29 02:09:09;;;;;;;23.50;7.30;;;;;;;15.59;72.14;100932.13;10210925;28;20146;-63
2022/10/29 02:14:21;;;;;;;14.77;4.93;;;;;;;15.54;72.27;100934.56;10211303;28;20118;-62
2022/10/29 02:19:28;;;;;;;11.60;5.15;;;;;;;15.49;72.11;100943.31;10211544;28;20160;-63
2022/10/29 02:24:30;;;;;;;13.35;5.80;;;;;;;15.45;71.92;100950.97;10217423;28;20130;-62
2022/10/29 02:29:31;;;;;;;16.63;6.13;;;;;;;15.38;72.01;100954.66;10213936;28;20047;-63
2022/10/29 02:34:32;;;;;;;15.30;5.35;;;;;;;15.31;72.29;100938.34;10216983;28;20062;-64
2022/10/29 02:39:34;;;;;;;12.90;6.00;;;;;;;15.16;72.53;100929.41;10208369;29;20172;-64
2022/10/29 02:44:35;;;;;;;11.93;5.05;;;;;;;15.12;72.49;100937.06;10213833;28;20044;-64
2022/10/29 02:49:36;;;;;;;9.60;5.15;;;;;;;15.08;72.57;100930.38;10203295;29;20069;-63
2022/10/29 02:54:38;;;;;;;13.48;5.28;;;;;;;15.07;72.28;100934.13;10203567;28;20058;-63
2022/10/29 02:59:40;;;;;;;13.82;5.32;;;;;;;15.05;72.60;100936.19;10211973;28;20067;-63
2022/10/29 03:04:43;;;;;;;14.57;4.97;;;;;;;15.06;72.63;100932.44;10206363;28;20047;-63
2022/10/29 03:09:44;;;;;;;12.77;6.35;;;;;;;15.02;72.74;100931.13;10202831;28;20134;-64
2022/10/29 03:14:45;;;;;;;12.05;5.80;;;;;;;15.00;72.54;100931.31;10207313;28;20055;-64
2022/10/29 03:19:47;;;;;;;16.33;5.78;;;;;;;14.98;72.43;100929.84;10207623;28;20135;-64
2022/10/29 03:24:48;;;;;;;15.75;5.70;;;;;;;14.90;72.59;100927.25;10209765;28;20111;-63
2022/10/29 03:29:50;;;;;;;14.18;6.75;;;;;;;14.84;72.73;100936.97;10208055;29;20075;-63
2022/10/29 03:34:51;;;;;;;12.65;5.93;;;;;;;14.81;72.58;100935.50;10211371;28;20138;-63
2022/10/29 03:39:59;;;;;;;17.17;6.32;;;;;;;14.80;72.56;100930.25;10202418;29;20051;-63
2022/10/29 03:45:01;;;;;;;19.20;6.50;;;;;;;14.76;72.59;100940.63;10204881;28;20050;-64
2022/10/29 03:50:03;;;;;;;14.38;7.25;;;;;;;14.72;72.27;100939.31;10207149;29;20526;-64
2022/10/29 03:55:05;;;;;;;18.02;6.40;;;;;;;14.70;72.46;100935.13;10210587;29;20155;-64
2022/10/29 04:00:08;;;;;;;14.80;5.70;;;;;;;14.63;72.29;100941.31;10215711;29;20052;-63
2022/10/29 04:05:09;;;;;;;18.70;5.13;;;;;;;14.60;72.54;100952.50;10201539;28;20052;-64
2022/10/29 04:10:11;;;;;;;14.77;5.82;;;;;;;14.55;72.48;100935.94;10204094;28;20047;-64
2022/10/29 04:15:12;;;;;;;10.10;5.10;;;;;;;14.52;72.63;100935.50;10211249;29;20144;-64
2022/10/29 04:20:14;;;;;;;13.80;4.88;;;;;;;14.44;72.72;100936.44;10199657;28;20083;-64
2022/10/29 04:25:35;;;;;;;18.38;5.38;;;;;;;14.44;72.46;100939.97;10212212;29;20418;-64
2022/10/29 04:30:56;;;;;;;15.32;5.90;;;;;;;14.44;72.81;100934.56;10205969;28;20048;-64
2022/10/29 04:35:58;;;;;;;8.63;5.88;;;;;;;14.47;72.52;100930.63;10217497;28;20070;-64
2022/10/29 04:41:00;;;;;;;20.30;10.65;;;;;;;14.54;72.76;100917.22;10205620;28;20051;-64
2022/10/29 04:46:01;;;;;;;14.68;5.70;;;;;;;14.52;72.75;100903.84;10203793;28;20394;-63
2022/10/29 04:51:03;;;;;;;15.38;6.70;;;;;;;14.47;72.84;100903.56;10198617;29;20048;-64
2022/10/29 04:56:05;;;;;;;22.52;8.90;;;;;;;14.45;73.02;100911.03;10215949;29;20136;-64
2022/10/29 05:01:06;;;;;;;14.52;7.88;;;;;;;14.54;72.99;100928.03;10211833;28;20470;-64
2022/10/29 05:06:08;;;;;;;16.95;7.30;;;;;;;14.64;72.77;100918.59;10212315;29;20075;-64
2022/10/29 05:11:09;;;;;;;10.00;5.07;;;;;;;14.72;72.82;100916.84;10212181;28;20082;-64
2022/10/29 05:16:11;;;;;;;12.85;5.85;;;;;;;14.62;73.13;100931.50;10212764;28;20058;-64
2022/10/29 05:21:12;;;;;;;13.30;6.43;;;;;;;14.62;73.23;100923.38;10209588;29;20138;-63
2022/10/29 05:26:14;;;;;;;14.00;6.22;;;;;;;14.75;73.10;100914.59;10216006;28;20126;-64
2022/10/29 05:31:18;;;;;;;14.20;5.63;;;;;;;14.87;73.05;100907.66;10201722;29;20162;-64
2022/10/29 05:36:19;;;;;;;8.38;4.70;;;;;;;14.96;72.78;100912.94;10215446;28;20115;-64
2022/10/29 05:41:20;;;;;;;15.90;5.10;;;;;;;14.97;72.85;100914.63;10211203;28;20139;-64
2022/10/29 05:46:22;;;;;;;13.00;5.32;;;;;;;15.00;72.77;100925.91;10204486;28;20035;-64
2022/10/29 05:51:23;;;;;;;18.02;6.10;;;;;;;15.02;72.81;100917.59;10210710;29;20139;-63
2022/10/29 05:56:25;;;;;;;13.75;6.43;;;;;;;15.07;72.63;100915.16;10211168;29;20138;-64
2022/10/29 06:01:26;;;;;;;14.52;5.20;;;;;;;15.11;72.68;100919.16;10207575;29;20406;-64
2022/10/29 06:06:27;;;;;;;14.73;6.22;;;;;;;15.15;72.58;100925.03;10209416;29;20467;-65
2022/10/29 06:11:29;;;;;;;18.50;4.82;;;;;;;15.18;72.76;100919.22;10217133;28;20454;-62
2022/10/29 06:16:30;;;;;;;13.98;6.32;;;;;;;15.20;72.75;100919.88;10212528;28;20151;-62
2022/10/29 06:21:33;;;;;;;15.77;5.88;;;;;;;15.20;72.72;100917.16;10202530;29;20932;-62
2022/10/29 06:26:36;;;;;;;18.25;7.07;;;;;;;15.20;72.97;100926.13;10204363;28;20137;-62
2022/10/29 06:31:37;;;;;;;12.77;6.80;;;;;;;15.25;73.06;100920.97;10219043;28;20482;-62
2022/10/29 06:36:39;;;;;;;11.88;5.05;;;;;;;15.26;72.96;100922.66;10206909;28;20054;-62
2022/10/29 06:41:40;;;;;;;14.20;5.18;;;;;;;15.35;72.92;100917.13;10207611;29;20134;-62
2022/10/29 06:46:41;;;;;;;14.35;5.40;;;;;;;15.33;73.03;100938.16;10210447;28;20057;-62
2022/10/29 06:51:43;;;;;;;22.50;6.70;;;;;;;15.29;73.61;100934.16;10210739;28;20528;-62
2022/10/29 06:56:44;;;;;;;11.52;5.85;;;;;;;15.40;73.34;100931.78;10204885;28;20047;-62
2022/10/29 07:01:45;;;;;;;15.00;5.88;;;;;;;15.53;73.10;100928.31;10210971;28;20138;-62
2022/10/29 07:06:47;;;;;;;17.58;6.05;;;;;;;15.61;73.04;100930.91;10212239;29;20048;-62
2022/10/29 07:11:48;;;;;;;14.93;6.10;;;;;;;15.70;72.94;100931.63;10181659;29;20087;-61
2022/10/29 07:16:50;;;;;;;13.35;6.75;;;;;;;15.77;73.02;100943.38;10205555;28;20971;-62
2022/10/29 07:21:51;;;;;;;18.05;6.93;;;;;;;15.85;72.91;100928.84;10211657;28;20582;-62
2022/10/29 07:26:53;;;;;;;15.00;4.88;;;;;;;15.95;72.72;100937.47;10207239;28;20143;-62
2022/10/29 07:31:54;;;;;;;8.57;5.25;;;;;;;16.00;72.68;100924.16;10206798;28;20130;-62
2022/10/29 07:36:56;;;;;;;15.15;4.93;;;;;;;16.12;72.72;100934.47;10200823;29;20138;-61
2022/10/29 07:41:57;;;;;;;13.07;5.38;;;;;;;16.15;72.64;100943.06;10207817;28;20126;-62
2022/10/29 07:47:01;;;;;;;13.00;5.47;;;;;;;16.25;72.33;100942.69;10200302;29;20139;-62
2022/10/29 07:52:03;;;;;;;13.88;5.47;;;;;;;16.34;72.14;100936.06;10204121;29;20051;-61
2022/10/29 07:57:05;;;;;;;14.20;5.95;;;;;;;16.43;72.13;100940.31;10223290;28;20074;-62
2022/10/29 08:02:09;;;;;;;15.90;4.82;;;;;;;16.58;71.87;100940.16;10212958;29;20738;-62
2022/10/29 08:07:10;;;;;;;10.95;5.45;;;;;;;16.71;71.90;100944.00;10216606;28;20068;-62
2022/10/29 08:12:12;;;;;;;15.00;5.25;;;;;;;16.84;71.54;100946.78;10214094;28;20597;-62
2022/10/29 08:17:13;;;;;;;15.93;6.18;;;;;;;16.97;71.37;100946.00;10209236;29;20103;-62
2022/10/29 08:22:15;;;;;;;12.05;5.88;;;;;;;17.10;71.22;100935.19;10210753;29;20130;-61
2022/10/29 08:27:16;;;;;;;21.35;6.47;;;;;;;17.24;70.80;100942.34;10213114;28;20424;-62
2022/10/29 08:32:17;;;;;;;12.50;5.70;;;;;;;17.38;70.75;100940.47;10215638;28;20067;-62
2022/10/29 08:37:19;;;;;;;11.80;5.18;;;;;;;17.49;70.79;100949.06;10219365;29;20518;-62
2022/10/29 08:42:38;;;;;;;13.48;6.32;;;;;;;17.57;70.78;100943.41;10220322;28;20052;-62
2022/10/29 08:48:11;;;;;;;12.63;5.50;;;;;;;17.61;70.54;100934.66;10209942;28;20054;-62
2022/10/29 08:53:19;;;;;;;13.73;7.10;;;;;;;17.75;70.31;100937.38;10213017;28;20491;-61
2022/10/29 08:58:36;;;;;;;9.48;5.22;;;;;;;17.76;70.22;100941.78;10214662;29;20042;-62
2022/10/29 09:03:37;;;;;;;12.38;6.07;;;;;;;17.80;70.21;100938.41;10215111;28;20102;-62
2022/10/29 09:09:01;;;;;;;11.35;6.13;;;;;;;17.83;70.40;100935.31;10207882;29;20063;-62
2022/10/29 09:14:21;;;;;;;10.35;5.90;;;;;;;17.90;70.08;100929.03;10219134;29;20076;-62
2022/10/29 09:19:47;;;;;;;14.43;5.88;;;;;;;17.95;70.32;100945.53;10213510;28;20170;-62
2022/10/29 09:25:14;;;;;;;24.73;8.05;;;;;;;18.01;70.04;100931.13;10218716;28;20134;-62
2022/10/29 09:30:19;;;;;;;18.48;6.65;;;;;;;18.16;69.99;100941.78;10224813;28;20142;-61
2022/10/29 09:35:29;;;;;;;18.60;7.30;;;;;;;18.21;69.96;100931.09;10214568;28;20063;-62
2022/10/29 09:40:37;;;;;;;25.95;7.18;;;;;;;18.31;69.93;100926.03;10202745;28;20043;-62
2022/10/29 09:46:12;;;;;;;25.13;9.25;;;;;;;18.40;69.72;100930.22;10228099;28;20032;-62
2022/10/29 09:51:24;;;;;;;21.63;7.65;;;;;;;18.59;69.44;100920.31;10214371;29;20222;-62
2022/10/29 09:56:26;;;;;;;16.45;8.02;;;;;;;18.89;68.89;100921.69;10211097;28;20051;-62
2022/10/29 10:01:28;;;;;;;17.40;7.88;;;;;;;19.00;68.55;100912.84;10218646;28;20054;-62
2022/10/29 10:06:53;;;;;;;19.27;7.63;;;;;;;19.20;68.22;100919.00;10205508;28;20594;-62
2022/10/29 10:11:57;;;;;;;20.45;8.88;;;;;;;19.22;68.40;100910.59;10207067;28;20067;-62
2022/10/29 10:17:00;;;;;;;20.98;7.57;;;;;;;19.28;67.89;100909.72;10208024;28;20450;-62
2022/10/29 10:22:04;;;;;;;16.88;7.30;;;;;;;19.42;67.58;100902.28;10208203;28;20052;-62
2022/10/29 10:27:17;;;;;;;19.80;7.32;;;;;;;19.47;67.34;100899.75;10204960;29;20143;-62
2022/10/29 10:32:24;;;;;;;16.08;7.30;;;;;;;19.62;66.98;100902.97;10209943;28;20071;-62
2022/10/29 10:37:31;;;;;;;19.40;6.35;;;;;;;19.79;66.72;100907.91;10204049;28;20082;-62
2022/10/29 10:42:38;;;;;;;16.52;6.20;;;;;;;20.00;66.00;100893.84;10211563;28;20493;-62
2022/10/29 10:47:44;;;;;;;17.65;7.20;;;;;;;20.07;65.68;100888.31;10209452;29;20043;-62
2022/10/29 10:52:46;;;;;;;19.73;7.73;;;;;;;20.21;65.21;100878.91;10202237;28;20051;-62
2022/10/29 10:57:54;;;;;;;16.67;6.03;;;;;;;20.39;64.69;100872.63;10206943;29;20048;-62
2022/10/29 11:03:02;;;;;;;14.07;6.03;;;;;;;20.44;64.52;100865.63;10207307;29;20120;-62
2022/10/29 11:08:11;;;;;;;17.80;6.32;;;;;;;20.68;63.45;100859.28;10210414;28;20062;-62
2022/10/29 11:13:17;;;;;;;15.25;6.50;;;;;;;21.06;63.09;100860.84;10202226;28;20044;-62
2022/10/29 11:18:23;;;;;;;14.52;5.90;;;;;;;21.32;61.72;100850.56;10214529;28;20170;-62
2022/10/29 11:23:34;;;;;;;16.83;6.20;;;;;;;21.62;61.17;100847.78;10204661;28;20063;-62
2022/10/29 11:28:47;;;;;;;11.95;7.63;;;;;;;21.71;60.89;100837.31;10209811;28;20249;-62
2022/10/29 11:34:15;;;;;;;21.23;7.75;;;;;;;21.74;60.39;100828.63;10212371;28;20139;-62
2022/10/29 11:39:22;;;;;;;14.75;7.55;;;;;;;21.87;59.80;100836.59;10200176;29;20051;-63
2022/10/29 11:44:25;;;;;;;19.98;7.03;;;;;;;21.96;59.34;100834.34;10193318;29;20071;-62
2022/10/29 11:49:52;;;;;;;13.40;6.38;;;;;;;22.01;58.77;100825.41;10214579;28;20467;-63
2022/10/29 11:55:03;;;;;;;13.23;5.80;;;;;;;22.01;58.99;100811.72;10194120;28;20175;-62
2022/10/29 12:00:17;;;;;;;16.33;6.05;;;;;;;22.08;58.96;100810.50;10221619;28;20109;-62
2022/10/29 12:05:37;;;;;;;12.88;5.45;;;;;;;22.25;58.75;100809.78;10194862;29;20048;-63
2022/10/29 12:10:46;;;;;;;15.35;6.25;;;;;;;22.30;58.33;100807.97;10213542;28;20070;-63
2022/10/29 12:16:06;;;;;;;11.95;5.68;;;;;;;22.22;58.69;100802.84;10203885;29;20075;-62
2022/10/29 12:21:29;;;;;;;14.50;6.10;;;;;;;22.21;58.08;100792.97;10195483;29;20494;-62
2022/10/29 12:26:49;;;;;;;17.73;6.20;;;;;;;22.34;57.80;100789.97;10201405;29;20058;-62
2022/10/29 12:32:06;;;;;;;18.00;6.35;;;;;;;22.28;57.51;100790.13;10199446;28;20098;-62
2022/10/29 12:37:35;;;;;;;21.17;6.55;;;;;;;22.25;57.41;100785.94;10198491;29;20917;-63
2022/10/29 12:42:37;;;;;;;21.08;6.93;;;;;;;22.18;57.08;100771.56;10211285;29;20126;-62
2022/10/29 12:48:07;;;;;;;16.60;5.97;;;;;;;22.10;57.26;100764.53;10209327;28;20138;-62
2022/10/29 12:53:27;;;;;;;13.57;6.15;;;;;;;22.22;57.30;100756.28;10210593;28;20553;-63
2022/10/29 12:58:47;;;;;;;14.88;7.03;;;;;;;22.26;56.88;100752.03;10209759;29;20042;-62
2022/10/29 13:03:54;;;;;;;14.40;5.25;;;;;;;22.36;57.60;100765.91;10221617;29;20545;-62
2022/10/29 13:08:56;;;;;;;15.77;7.20;;;;;;;22.46;58.10;100750.75;10209001;29;20044;-62
2022/10/29 13:13:59;;;;;;;18.17;6.75;;;;;;;22.52;57.82;100753.34;10214522;29;20145;-62
2022/10/29 13:19:17;;;;;;;20.95;6.93;;;;;;;22.56;57.74;100753.69;10213477;28;20066;-63
2022/10/29 13:24:19;;;;;;;12.70;5.53;;;;;;;22.55;58.01;100752.84;10213759;28;20047;-63
2022/10/29 13:29:43;;;;;;;14.63;6.15;;;;;;;22.58;58.15;100751.53;10209957;28;20466;-63
2022/10/29 13:34:48;;;;;;;16.67;7.43;;;;;;;22.60;57.93;100746.63;10209115;29;20055;-62
2022/10/29 13:40:21;;;;;;;22.23;6.75;;;;;;;22.60;58.34;100727.44;10208185;29;20083;-62
2022/10/29 13:45:23;;;;;;;18.58;6.40;;;;;;;22.62;57.94;100729.94;10206660;29;20134;-63
2022/10/29 13:50:24;;;;;;;15.20;6.13;;;;;;;22.67;58.00;100735.50;10203770;28;20130;-63
2022/10/29 13:55:31;;;;;;;12.93;5.63;;;;;;;22.67;57.79;100728.13;10215770;29;20086;-62
2022/10/29 14:00:36;;;;;;;11.23;5.53;;;;;;;22.71;57.83;100717.47;10213999;28;20536;-63
2022/10/29 14:05:45;;;;;;;13.10;4.78;;;;;;;22.76;57.46;100720.31;10202576;29;20127;-63
2022/10/29 14:10:52;;;;;;;16.33;5.85;;;;;;;22.77;57.42;100711.84;10211657;29;20110;-62
2022/10/29 14:16:05;;;;;;;18.60;5.07;;;;;;;22.81;57.15;100722.31;10218157;29;20114;-63
2022/10/29 14:21:23;;;;;;;19.13;5.53;;;;;;;22.82;56.95;100721.25;10210588;28;20060;-63
2022/10/29 14:26:25;;;;;;;15.48;6.10;;;;;;;22.73;57.71;100718.09;10210835;28;20568;-63
2022/10/29 14:31:27;;;;;;;18.27;6.20;;;;;;;22.69;57.56;100714.16;10207739;28;20052;-63
2022/10/29 14:36:34;;;;;;;15.75;4.80;;;;;;;22.66;57.61;100709.19;10207006;29;20567;-60
2022/10/29 14:41:38;;;;;;;13.68;5.97;;;;;;;22.63;57.60;100702.31;10205192;28;20147;-63
2022/10/29 14:46:39;;;;;;;12.73;6.05;;;;;;;22.60;57.69;100710.19;10201632;29;20441;-62
2022/10/29 14:51:49;;;;;;;21.00;6.38;;;;;;;22.60;57.62;100716.47;10212600;29;20138;-62
2022/10/29 14:56:57;;;;;;;24.90;8.20;;;;;;;22.58;57.75;100718.63;10209954;29;20098;-63
2022/10/29 15:02:02;;;;;;;18.25;6.30;;;;;;;22.54;57.88;100721.03;10211233;28;20058;-63
2022/10/29 15:07:30;;;;;;;14.75;6.22;;;;;;;22.43;58.43;100712.88;10210171;28;20054;-62
2022/10/29 15:12:37;;;;;;;12.15;6.40;;;;;;;22.36;58.93;100707.56;10207266;29;20126;-63
2022/10/29 15:17:48;;;;;;;15.18;5.57;;;;;;;22.29;59.14;100699.47;10218455;28;20130;-63
2022/10/29 15:22:55;;;;;;;9.43;5.22;;;;;;;22.22;59.00;100703.44;10211806;28;20170;-63
2022/10/29 15:27:57;;;;;;;16.75;6.28;;;;;;;22.11;59.44;100700.47;10211187;28;20136;-63
2022/10/29 15:33:01;;;;;;;18.25;6.80;;;;;;;22.02;59.51;100701.09;10207543;28;20485;-63
2022/10/29 15:38:03;;;;;;;18.08;6.57;;;;;;;21.87;60.22;100712.59;10202607;29;20058;-63
2022/10/29 15:43:28;;;;;;;29.83;9.30;;;;;;;21.73;60.34;100707.38;10206165;28;20047;-63
2022/10/29 15:48:36;;;;;;;16.88;7.80;;;;;;;21.64;61.06;100710.72;10211351;28;20138;-61
2022/10/29 15:53:37;;;;;;;22.73;11.77;;;;;;;21.48;61.38;100709.56;10214027;28;20043;-61
2022/10/29 15:58:39;;;;;;;31.17;10.85;;;;;;;21.09;62.91;100707.28;10199297;28;20057;-63
2022/10/29 16:03:41;;;;;;;25.25;10.82;;;;;;;20.96;62.92;100696.59;10210849;29;20463;-63
2022/10/29 16:08:50;;;;;;;26.45;11.13;;;;;;;20.84;63.47;100693.84;10207378;29;20803;-62
2022/10/29 16:13:52;;;;;;;34.22;15.23;;;;;;;20.69;63.39;100702.47;10210134;28;20051;-63
2022/10/29 16:18:55;;;;;;;24.10;12.82;;;;;;;20.41;64.01;100700.34;10200005;28;20059;-62
2022/10/29 16:23:57;;;;;;;26.17;11.63;;;;;;;20.29;64.76;100697.59;10218103;28;20618;-63
2022/10/29 16:28:58;;;;;;;27.92;12.85;;;;;;;20.11;65.05;100703.91;10220018;28;20691;-61
2022/10/29 16:34:02;;;;;;;22.35;11.98;;;;;;;19.99;65.22;100697.59;10213933;28;20094;-67
2022/10/29 16:39:04;;;;;;;22.02;11.80;;;;;;;19.89;65.27;100694.56;10219753;28;20044;-66
2022/10/29 16:44:05;;;;;;;26.20;12.10;;;;;;;19.71;65.70;100700.84;10213663;29;20134;-66
2022/10/29 16:49:06;;;;;;;23.98;12.55;;;;;;;19.47;66.29;100695.22;10211543;28;20132;-68
2022/10/29 16:54:08;;;;;;;26.83;11.02;;;;;;;19.32;66.79;100681.13;10218741;28;20590;-67
2022/10/29 16:59:09;;;;;;;23.88;11.77;;;;;;;19.25;66.70;100688.53;10218629;28;20051;-67
2022/10/29 17:04:10;;;;;;;28.33;11.30;;;;;;;19.14;66.81;100696.38;10207552;29;20044;-67
2022/10/29 17:09:12;;;;;;;27.40;11.90;;;;;;;19.01;66.96;100693.78;10223564;28;20048;-68
2022/10/29 17:14:13;;;;;;;29.40;13.40;;;;;;;18.88;67.37;100688.44;10216843;29;20078;-67
2022/10/29 17:19:15;;;;;;;23.83;13.25;;;;;;;18.78;67.48;100697.09;10211891;28;20133;-66
2022/10/29 17:24:16;;;;;;;30.92;12.82;;;;;;;18.66;67.79;100686.09;10210929;28;20067;-66
2022/10/29 17:29:18;;;;;;;23.48;13.38;;;;;;;18.58;67.83;100694.50;10210306;29;20129;-65
2022/10/29 17:34:19;;;;;;;23.95;12.30;;;;;;;18.46;68.05;100694.38;10211709;28;20582;-65
2022/10/29 17:39:21;;;;;;;34.38;15.18;;;;;;;18.34;68.35;100699.69;10215446;28;20043;-64
2022/10/29 17:44:25;;;;;;;26.42;13.93;;;;;;;18.27;68.34;100701.63;10205193;28;20182;-69
2022/10/29 17:49:26;;;;;;;28.58;13.98;;;;;;;18.18;68.55;100698.31;10212708;28;20098;-67
2022/10/29 17:54:27;;;;;;;37.00;16.13;;;;;;;18.02;68.87;100707.81;10201266;28;20122;-66
2022/10/29 17:59:29;;;;;;;32.22;14.57;;;;;;;17.96;69.09;100719.56;10206446;28;20070;-67
2022/10/29 18:04:30;;;;;;;28.63;13.95;;;;;;;17.87;69.05;100707.28;10204822;29;20050;-68
2022/10/29 18:09:32;;;;;;;27.20;13.50;;;;;;;17.78;69.01;100709.34;10212054;29;20132;-66
2022/10/29 18:14:33;;;;;;;22.38;13.45;;;;;;;17.67;69.33;100710.00;10209004;28;20067;-64
2022/10/29 18:19:34;;;;;;;24.50;11.70;;;;;;;17.51;69.73;100714.03;10199376;29;20556;-63
2022/10/29 18:24:36;;;;;;;23.77;11.82;;;;;;;17.36;70.00;100713.47;10212376;28;20553;-66
2022/10/29 18:29:37;;;;;;;23.05;12.65;;;;;;;17.33;69.95;100708.44;10202282;29;20123;-65
2022/10/29 18:34:39;;;;;;;22.15;12.57;;;;;;;17.27;69.89;100712.00;10202663;28;20043;-65
2022/10/29 18:39:40;;;;;;;19.73;11.95;;;;;;;17.17;69.79;100710.53;10194623;28;20051;-64
2022/10/29 18:44:41;;;;;;;20.90;11.57;;;;;;;17.07;70.04;100709.31;10206318;28;20048;-61
2022/10/29 18:49:43;;;;;;;25.92;14.02;;;;;;;17.00;69.95;100709.28;10207455;28;20143;-62
2022/10/29 18:54:44;;;;;;;29.35;12.40;;;;;;;16.90;70.28;100709.72;10206863;28;20573;-61
2022/10/29 18:59:47;;;;;;;22.55;11.60;;;;;;;16.85;70.18;100709.50;10206879;28;20046;-62
2022/10/29 19:04:49;;;;;;;22.27;10.95;;;;;;;16.74;70.17;100708.22;10205186;28;20048;-62
2022/10/29 19:09:50;;;;;;;22.13;11.23;;;;;;;16.66;70.56;100706.53;10206134;28;20397;-61
2022/10/29 19:14:52;;;;;;;28.10;11.05;;;;;;;16.61;70.73;100713.66;10203078;28;20047;-64
2022/10/29 19:19:53;;;;;;;19.77;10.48;;;;;;;16.51;70.40;100697.75;10203657;28;20058;-64
2022/10/29 19:24:54;;;;;;;21.98;11.25;;;;;;;16.41;70.86;100700.03;10206106;29;20146;-64
2022/10/29 19:29:56;;;;;;;19.33;11.35;;;;;;;16.37;70.70;100710.47;10202626;29;20079;-62
2022/10/29 19:34:57;;;;;;;24.15;12.50;;;;;;;16.34;70.72;100702.72;10208209;28;20054;-65
2022/10/29 19:39:59;;;;;;;21.27;12.73;;;;;;;16.29;71.06;100702.53;10203777;28;20043;-63
2022/10/29 19:45:00;;;;;;;25.02;12.80;;;;;;;16.21;70.92;100697.25;10203695;29;20090;-65
2022/10/29 19:50:01;;;;;;;27.30;13.40;;;;;;;16.12;71.06;100699.34;10205189;28;20053;-64
2022/10/29 19:55:03;;;;;;;29.77;13.50;;;;;;;16.09;71.18;100697.03;10204405;28;20075;-64
2022/10/29 20:00:05;;;;;;;26.20;14.18;;;;;;;16.08;71.22;100698.06;10205761;28;20130;-62
2022/10/29 20:05:07;;;;;;;27.80;14.02;;;;;;;16.04;71.26;100700.34;10201836;29;20047;-62
2022/10/29 20:10:08;;;;;;;22.45;14.05;;;;;;;15.99;71.03;100696.56;10204294;29;20127;-62
2022/10/29 20:15:10;;;;;;;26.10;13.95;;;;;;;15.96;71.11;100697.00;10200166;29;20140;-62
2022/10/29 20:20:12;;;;;;;26.33;13.73;;;;;;;15.90;71.13;100698.63;10206890;28;20080;-61
2022/10/29 20:25:17;;;;;;;20.95;12.05;;;;;;;15.80;71.43;100703.59;10210011;28;20046;-62
2022/10/29 20:30:24;;;;;;;20.88;12.82;;;;;;;15.79;71.34;100707.34;10213740;28;20048;-61
2022/10/29 20:35:26;;;;;;;26.77;12.60;;;;;;;15.75;71.26;100703.38;10206473;28;20060;-62
2022/10/29 20:40:27;;;;;;;22.23;11.55;;;;;;;15.70;71.12;100695.81;10201550;28;20517;-64
2022/10/29 20:45:28;;;;;;;21.52;11.15;;;;;;;15.64;71.16;100692.03;10203508;28;20463;-61
2022/10/29 20:50:30;;;;;;;25.80;13.52;;;;;;;15.62;71.21;100696.81;10208822;28;20143;-62
2022/10/29 20:55:32;;;;;;;21.98;12.85;;;;;;;15.59;71.15;100685.53;10197298;28;20131;-60
2022/10/29 21:00:33;;;;;;;30.08;13.60;;;;;;;15.57;71.22;100691.16;10210625;29;20053;-61
2022/10/29 21:05:35;;;;;;;29.27;14.23;;;;;;;15.51;71.24;100701.97;10208118;28;20051;-62
2022/10/29 21:10:36;;;;;;;27.23;12.55;;;;;;;15.49;71.37;100704.88;10213231;28;20048;-62
2022/10/29 21:15:38;;;;;;;23.08;12.25;;;;;;;15.46;71.45;100706.09;10209034;28;20126;-61
2022/10/29 21:20:39;;;;;;;22.95;11.48;;;;;;;15.46;71.27;100705.25;10209270;28;20054;-61
2022/10/29 21:25:40;;;;;;;18.42;10.38;;;;;;;15.43;71.29;100709.19;10213825;28;20523;-61
2022/10/29 21:30:42;;;;;;;19.33;10.43;;;;;;;15.26;71.97;100702.41;10212200;28;20561;-61
2022/10/29 21:35:49;;;;;;;26.30;11.98;;;;;;;15.37;71.74;100698.34;10211538;29;20058;-61
2022/10/29 21:40:51;;;;;;;25.95;12.93;;;;;;;15.42;71.67;100688.59;10214488;28;20062;-61
2022/10/29 21:45:53;;;;;;;21.98;12.63;;;;;;;15.43;71.58;100692.13;10206706;29;20487;-61
2022/10/29 21:51:11;;;;;;;27.38;12.32;;;;;;;15.44;71.46;100688.34;10209192;29;20043;-62
2022/10/29 21:56:14;;;;;;;24.60;13.90;;;;;;;15.40;71.51;100682.53;10218975;29;20102;-62
2022/10/29 22:01:16;;;;;;;19.52;11.85;;;;;;;15.45;71.55;100676.50;10212658;28;20131;-62
2022/10/29 22:06:22;;;;;;;21.92;11.52;;;;;;;15.43;71.43;100675.88;10206954;28;20047;-62
2022/10/29 22:11:25;;;;;;;27.53;12.33;;;;;;;15.42;71.47;100674.19;10216814;29;20501;-62
2022/10/29 22:16:27;;;;;;;21.85;11.27;;;;;;;15.42;71.56;100677.75;10211896;28;20071;-62
2022/10/29 22:21:30;;;;;;;28.05;11.63;;;;;;;15.43;71.39;100673.16;10210446;29;20071;-63
2022/10/29 22:26:31;;;;;;;19.42;10.45;;;;;;;15.45;71.33;100671.09;10203936;29;20047;-62
2022/10/29 22:31:33;;;;;;;27.58;11.88;;;;;;;15.43;71.56;100673.16;10214263;28;20046;-63
2022/10/29 22:36:34;;;;;;;28.35;15.75;;;;;;;15.41;71.72;100675.22;10211701;29;20122;-63
2022/10/29 22:41:35;;;;;;;20.70;12.30;;;;;;;15.42;71.34;100668.75;10211358;28;20430;-62
2022/10/29 22:46:37;;;;;;;28.65;12.48;;;;;;;15.43;71.47;100668.56;10208565;28;20126;-62
2022/10/29 22:51:38;;;;;;;21.30;11.93;;;;;;;15.41;71.36;100658.97;10209730;28;20442;-62
2022/10/29 22:56:39;;;;;;;24.50;10.25;;;;;;;15.28;71.78;100665.13;10214538;28;20590;-62
2022/10/29 23:01:41;;;;;;;25.33;11.23;;;;;;;15.32;71.64;100660.16;10211293;28;20134;-62